createdAt,value
2018-11-25T00:01:11.641Z,11.99
2018-11-25T00:03:38.620Z,11.81
2018-11-25T00:06:04.578Z,11.93
2018-11-25T00:08:30.528Z,12.17
2018-11-25T00:10:56.473Z,12.60
2018-11-25T00:13:22.433Z,13.07
2018-11-25T00:15:48.374Z,13.33
2018-11-25T00:18:14.368Z,12.96
2018-11-25T00:20:40.350Z,12.70
2018-11-25T00:23:06.332Z,12.57
2018-11-25T00:25:32.322Z,12.31
2018-11-25T00:27:58.321Z,12.35
2018-11-25T00:30:24.298Z,12.15
2018-11-25T00:32:50.263Z,12.14
2018-11-25T00:35:16.227Z,12.08
2018-11-25T00:37:47.942Z,12.50
2018-11-25T00:40:08.236Z,12.58
2018-11-25T00:42:34.227Z,12.14
2018-11-25T00:45:00.195Z,11.95
2018-11-25T00:47:26.211Z,11.59
2018-11-25T00:49:52.169Z,11.76
2018-11-25T00:52:18.136Z,11.56
2018-11-25T00:54:44.095Z,11.52
2018-11-25T00:57:10.058Z,11.35
2018-11-25T00:59:36.007Z,11.29
2018-11-25T01:02:01.956Z,11.28
2018-11-25T01:04:27.907Z,11.31
2018-11-25T01:06:53.873Z,11.18
2018-11-25T01:09:19.936Z,11.09
2018-11-25T01:11:45.867Z,11.02
2018-11-25T01:14:11.830Z,10.97
2018-11-25T01:16:39.629Z,10.97
2018-11-25T01:19:05.622Z,11.43
2018-11-25T01:21:31.560Z,11.73
2018-11-25T01:23:57.543Z,11.65
2018-11-25T01:26:23.495Z,11.79
2018-11-25T01:28:49.491Z,11.72
2018-11-25T01:31:15.444Z,11.81
2018-11-25T01:33:41.463Z,11.98
2018-11-25T01:36:07.403Z,11.71
2018-11-25T01:38:33.373Z,11.60
2018-11-25T01:40:59.337Z,12.33
2018-11-25T01:43:25.286Z,12.03
2018-11-25T01:45:51.316Z,11.53
2018-11-25T01:48:17.300Z,11.41
2018-11-25T01:50:43.270Z,11.03
2018-11-25T01:53:09.255Z,11.19
2018-11-25T01:55:35.203Z,10.97
2018-11-25T01:58:01.180Z,10.82
2018-11-25T02:00:27.146Z,10.58
2018-11-25T02:02:53.115Z,10.66
2018-11-25T02:05:19.071Z,10.87
2018-11-25T02:07:45.049Z,10.78
2018-11-25T02:10:11.021Z,10.98
2018-11-25T02:12:36.998Z,10.97
2018-11-25T02:15:02.966Z,10.91
2018-11-25T02:17:28.939Z,11.07
2018-11-25T02:19:54.911Z,11.04
2018-11-25T02:22:20.895Z,10.85
2018-11-25T02:27:18.203Z,10.78
2018-11-25T02:29:44.175Z,10.63
2018-11-25T02:32:10.153Z,10.96
2018-11-25T02:34:36.152Z,10.85
2018-11-25T02:37:02.122Z,10.82
2018-11-25T02:39:28.073Z,10.77
2018-11-25T02:41:54.048Z,10.74
2018-11-25T02:44:20.024Z,10.75
2018-11-25T02:46:45.969Z,10.96
2018-11-25T02:49:11.920Z,10.94
2018-11-25T02:51:37.910Z,10.94
2018-11-25T02:54:03.861Z,10.65
2018-11-25T02:56:29.808Z,10.47
2018-11-25T02:58:55.750Z,10.30
2018-11-25T03:01:21.713Z,10.37
2018-11-25T03:03:47.680Z,10.32
2018-11-25T03:06:13.676Z,10.08
2018-11-25T03:08:39.656Z,10.23
2018-11-25T03:11:05.653Z,10.56
2018-11-25T03:13:31.626Z,10.46
2018-11-25T03:15:57.576Z,10.59
2018-11-25T03:18:23.549Z,10.45
2018-11-25T03:20:49.891Z,10.58
2018-11-25T03:23:15.871Z,10.66
2018-11-25T03:25:41.856Z,10.91
2018-11-25T03:28:07.838Z,11.23
2018-11-25T03:30:33.796Z,11.09
2018-11-25T03:32:59.758Z,11.40
2018-11-25T03:35:25.743Z,11.42
2018-11-25T03:37:51.696Z,11.00
2018-11-25T03:40:17.656Z,10.95
2018-11-25T03:42:43.659Z,10.77
2018-11-25T03:45:10.529Z,10.73
2018-11-25T03:47:36.529Z,10.89
2018-11-25T03:50:02.499Z,11.16
2018-11-25T03:52:28.456Z,11.07
2018-11-25T03:54:54.409Z,11.06
2018-11-25T03:57:20.379Z,10.99
2018-11-25T03:59:46.347Z,10.97
2018-11-25T04:02:12.320Z,11.20
2018-11-25T04:04:38.320Z,11.09
2018-11-25T04:07:04.281Z,10.04
2018-11-25T04:09:30.241Z,10.63
2018-11-25T04:11:56.244Z,10.58
2018-11-25T04:14:22.201Z,11.06
2018-11-25T04:16:48.163Z,10.94
2018-11-25T04:19:14.135Z,10.83
2018-11-25T04:21:40.125Z,11.29
2018-11-25T04:24:06.075Z,11.23
2018-11-25T04:26:32.047Z,10.81
2018-11-25T04:28:58.003Z,10.73
2018-11-25T04:31:23.972Z,10.92
2018-11-25T04:33:49.916Z,11.31
2018-11-25T04:36:15.877Z,11.38
2018-11-25T04:38:41.852Z,11.86
2018-11-25T04:41:07.808Z,11.59
2018-11-25T04:43:33.766Z,11.53
2018-11-25T04:45:59.727Z,11.64
2018-11-25T04:48:25.700Z,11.28
2018-11-25T04:50:51.660Z,10.73
2018-11-25T04:53:17.615Z,10.66
2018-11-25T04:55:43.578Z,10.54
2018-11-25T04:58:09.551Z,10.67
2018-11-25T05:00:35.524Z,10.91
2018-11-25T05:03:01.476Z,10.71
2018-11-25T05:05:27.419Z,11.48
2018-11-25T05:07:53.404Z,11.64
2018-11-25T05:10:19.357Z,11.36
2018-11-25T05:12:45.334Z,11.31
2018-11-25T05:15:11.307Z,11.26
2018-11-25T05:17:37.261Z,11.42
2018-11-25T05:20:03.207Z,11.41
2018-11-25T05:22:29.146Z,11.18
2018-11-25T05:24:55.124Z,11.02
2018-11-25T05:27:21.114Z,11.11
2018-11-25T05:29:47.076Z,11.24
2018-11-25T05:32:13.058Z,11.41
2018-11-25T05:34:39.031Z,11.49
2018-11-25T05:37:04.989Z,11.41
2018-11-25T05:39:30.934Z,11.37
2018-11-25T05:41:56.904Z,11.75
2018-11-25T05:44:22.885Z,11.61
2018-11-25T05:46:48.850Z,11.46
2018-11-25T05:49:14.809Z,11.50
2018-11-25T05:51:40.768Z,11.51
2018-11-25T05:54:06.744Z,11.28
2018-11-25T05:56:32.708Z,11.34
2018-11-25T05:58:58.650Z,11.31
2018-11-25T06:01:24.649Z,11.37
2018-11-25T06:03:50.647Z,11.09
2018-11-25T06:06:16.617Z,11.45
2018-11-25T06:08:42.581Z,11.61
2018-11-25T06:11:08.523Z,11.48
2018-11-25T06:13:34.471Z,11.56
2018-11-25T06:16:00.443Z,11.98
2018-11-25T06:18:26.421Z,11.77
2018-11-25T06:20:52.383Z,11.93
2018-11-25T06:23:18.331Z,12.15
2018-11-25T06:25:44.300Z,11.61
2018-11-25T06:28:10.240Z,11.60
2018-11-25T06:30:36.194Z,11.96
2018-11-25T06:33:02.178Z,11.96
2018-11-25T06:35:28.121Z,11.94
2018-11-25T06:37:54.118Z,11.84
2018-11-25T06:40:20.063Z,11.53
2018-11-25T06:42:46.046Z,11.45
2018-11-25T06:45:11.990Z,11.22
2018-11-25T06:47:37.970Z,11.72
2018-11-25T06:50:03.922Z,11.43
2018-11-25T06:52:29.923Z,10.93
2018-11-25T06:54:55.896Z,10.91
2018-11-25T06:57:21.876Z,11.04
2018-11-25T06:59:47.842Z,11.28
2018-11-25T07:02:13.784Z,11.52
2018-11-25T07:04:39.760Z,11.47
2018-11-25T07:07:05.708Z,11.62
2018-11-25T07:09:31.668Z,11.98
2018-11-25T07:11:57.639Z,11.62
2018-11-25T07:14:23.607Z,11.60
2018-11-25T07:16:49.608Z,11.45
2018-11-25T07:19:16.413Z,11.65
2018-11-25T07:21:42.392Z,11.57
2018-11-25T07:24:08.357Z,11.41
2018-11-25T07:26:34.336Z,11.02
2018-11-25T07:29:00.304Z,11.12
2018-11-25T07:31:26.286Z,11.15
2018-11-25T07:33:52.257Z,11.19
2018-11-25T07:36:18.215Z,11.25
2018-11-25T07:38:44.168Z,11.30
2018-11-25T07:41:11.357Z,11.13
2018-11-25T07:43:37.328Z,11.13
2018-11-25T07:46:03.294Z,11.03
2018-11-25T07:48:29.255Z,11.50
2018-11-25T07:50:55.203Z,11.65
2018-11-25T07:53:21.197Z,11.87
2018-11-25T07:55:47.151Z,12.03
2018-11-25T07:58:13.114Z,12.51
2018-11-25T08:00:39.057Z,12.65
2018-11-25T08:03:05.084Z,12.83
2018-11-25T08:05:31.034Z,12.29
2018-11-25T08:07:56.991Z,11.69
2018-11-25T08:10:22.932Z,11.74
2018-11-25T08:12:48.885Z,11.91
2018-11-25T08:15:14.846Z,11.98
2018-11-25T08:17:40.795Z,12.08
2018-11-25T08:20:06.765Z,11.90
2018-11-25T08:22:32.736Z,12.58
2018-11-25T08:24:58.720Z,11.98
2018-11-25T08:27:24.698Z,11.02
2018-11-25T08:29:50.653Z,11.31
2018-11-25T08:32:16.618Z,11.95
2018-11-25T08:34:42.584Z,11.82
2018-11-25T08:37:08.542Z,12.09
2018-11-25T08:39:34.560Z,11.31
2018-11-25T08:42:00.541Z,11.89
2018-11-25T08:44:26.540Z,11.76
2018-11-25T08:46:52.614Z,12.17
2018-11-25T08:49:18.593Z,12.29
2018-11-25T08:51:44.648Z,12.64
2018-11-25T08:54:10.639Z,12.82
2018-11-25T08:56:36.580Z,12.41
2018-11-25T08:59:02.671Z,12.84
2018-11-25T09:01:28.639Z,12.26
2018-11-25T09:03:54.805Z,12.34
2018-11-25T09:06:21.752Z,12.72
2018-11-25T09:08:47.726Z,12.49
2018-11-25T09:11:13.676Z,12.67
2018-11-25T09:13:39.653Z,13.02
2018-11-25T09:16:05.645Z,13.00
2018-11-25T09:18:31.608Z,12.98
2018-11-25T09:20:57.602Z,13.11
2018-11-25T09:23:23.584Z,12.87
2018-11-25T09:25:49.575Z,13.00
2018-11-25T09:28:15.587Z,13.03
2018-11-25T09:30:41.585Z,12.50
2018-11-25T09:33:07.688Z,12.37
2018-11-25T09:35:33.659Z,12.46
2018-11-25T09:37:59.590Z,12.70
2018-11-25T09:40:25.574Z,12.49
2018-11-25T09:42:51.550Z,12.91
2018-11-25T09:45:17.523Z,12.93
2018-11-25T09:47:43.471Z,12.75
2018-11-25T09:50:09.546Z,12.94
2018-11-25T09:52:36.202Z,13.08
2018-11-25T09:55:03.104Z,12.68
2018-11-25T09:57:29.099Z,12.26
2018-11-25T09:59:57.537Z,12.83
2018-11-25T10:02:23.517Z,13.16
2018-11-25T10:04:49.490Z,13.33
2018-11-25T10:07:15.436Z,12.65
2018-11-25T10:09:41.428Z,12.39
2018-11-25T10:12:07.383Z,12.77
2018-11-25T10:14:33.353Z,12.97
2018-11-25T10:16:59.350Z,12.80
2018-11-25T10:19:25.392Z,12.61
2018-11-25T10:21:51.439Z,12.97
2018-11-25T10:24:17.436Z,13.31
2018-11-25T10:26:43.411Z,13.39
2018-11-25T10:29:09.680Z,13.19
2018-11-25T10:31:35.639Z,13.86
2018-11-25T10:34:01.599Z,13.83
2018-11-25T10:36:27.567Z,13.41
2018-11-25T10:38:53.514Z,13.82
2018-11-25T10:41:19.536Z,13.89
2018-11-25T10:43:45.775Z,13.41
2018-11-25T10:46:11.781Z,13.30
2018-11-25T10:48:37.772Z,13.04
2018-11-25T10:51:05.042Z,13.75
2018-11-25T10:53:30.989Z,13.50
2018-11-25T10:55:56.981Z,13.79
2018-11-25T10:58:22.958Z,13.19
2018-11-25T11:00:48.965Z,12.83
2018-11-25T11:03:14.953Z,13.56
2018-11-25T11:05:40.953Z,13.08
2018-11-25T11:08:06.924Z,12.75
2018-11-25T11:10:32.874Z,12.85
2018-11-25T11:12:59.009Z,12.40
2018-11-25T11:15:24.868Z,12.02
2018-11-25T11:17:50.839Z,12.44
2018-11-25T11:20:16.829Z,12.15
2018-11-25T11:22:42.795Z,11.88
2018-11-25T11:25:08.770Z,12.30
2018-11-25T11:27:34.769Z,12.42
2018-11-25T11:30:00.738Z,12.26
2018-11-25T11:32:26.713Z,12.37
2018-11-25T11:34:52.696Z,13.01
2018-11-25T11:37:18.695Z,12.67
2018-11-25T11:39:44.670Z,13.82
2018-11-25T11:42:10.627Z,13.02
2018-11-25T11:44:36.580Z,13.88
2018-11-25T11:47:02.556Z,13.88
2018-11-25T11:49:28.535Z,12.98
2018-11-25T11:51:54.542Z,12.21
2018-11-25T11:54:20.527Z,12.03
2018-11-25T11:56:46.509Z,12.15
2018-11-25T11:59:12.483Z,12.52
2018-11-25T12:01:38.432Z,12.72
2018-11-25T12:04:04.420Z,12.68
2018-11-25T12:06:30.459Z,13.23
2018-11-25T12:08:56.418Z,13.94
2018-11-25T12:11:22.396Z,12.49
2018-11-25T12:13:48.374Z,12.98
2018-11-25T12:16:15.179Z,12.38
2018-11-25T12:18:41.235Z,12.04
2018-11-25T12:21:07.235Z,11.61
2018-11-25T12:23:33.299Z,11.46
2018-11-25T12:25:59.271Z,11.85
2018-11-25T12:28:26.826Z,12.15
2018-11-25T12:30:52.840Z,12.76
2018-11-25T12:33:19.692Z,13.34
2018-11-25T12:35:48.694Z,12.88
2018-11-25T12:38:14.710Z,13.80
2018-11-25T12:40:41.264Z,13.32
2018-11-25T12:43:07.324Z,13.00
2018-11-25T12:45:33.416Z,13.33
2018-11-25T12:47:59.408Z,13.95
2018-11-25T12:50:25.388Z,13.58
2018-11-25T12:52:51.355Z,13.45
2018-11-25T12:55:17.325Z,13.57
2018-11-25T12:57:43.295Z,13.54
2018-11-25T13:00:09.246Z,13.41
2018-11-25T13:02:35.247Z,13.23
2018-11-25T13:05:01.211Z,13.80
2018-11-25T13:07:27.155Z,14.00
2018-11-25T13:09:53.718Z,13.83
2018-11-25T13:12:19.700Z,14.06
2018-11-25T13:14:46.712Z,13.66
2018-11-25T13:17:12.679Z,13.90
2018-11-25T13:19:38.672Z,13.58
2018-11-25T13:22:04.628Z,13.87
2018-11-25T13:24:30.613Z,13.45
2018-11-25T13:26:56.590Z,13.02
2018-11-25T13:29:22.587Z,13.56
2018-11-25T13:31:48.550Z,13.97
2018-11-25T13:34:14.543Z,13.96
2018-11-25T13:36:40.525Z,14.01
2018-11-25T13:39:06.519Z,14.06
2018-11-25T13:41:32.502Z,13.96
2018-11-25T13:43:58.504Z,13.97
2018-11-25T13:46:24.488Z,13.85
2018-11-25T13:48:50.571Z,14.30
2018-11-25T13:51:16.614Z,13.39
2018-11-25T13:53:42.607Z,13.77
2018-11-25T13:56:08.558Z,14.17
2018-11-25T13:58:34.603Z,13.25
2018-11-25T14:01:00.607Z,13.46
2018-11-25T14:03:26.667Z,14.15
2018-11-25T14:05:53.503Z,14.33
2018-11-25T14:08:19.317Z,14.31
2018-11-25T14:10:45.960Z,14.21
2018-11-25T14:13:11.937Z,13.89
2018-11-25T14:15:37.936Z,14.12
2018-11-25T14:18:03.972Z,14.13
2018-11-25T14:20:30.021Z,13.60
2018-11-25T14:22:56.542Z,13.83
2018-11-25T14:25:22.539Z,13.92
2018-11-25T14:27:49.211Z,14.01
2018-11-25T14:30:15.348Z,13.97
2018-11-25T14:32:41.782Z,13.57
2018-11-25T14:35:08.788Z,13.81
2018-11-25T14:37:34.838Z,13.18
2018-11-25T14:40:00.921Z,13.03
2018-11-25T14:42:27.006Z,12.86
2018-11-25T14:44:53.899Z,13.40
2018-11-25T14:47:20.484Z,13.54
2018-11-25T14:49:46.504Z,12.83
2018-11-25T14:52:12.500Z,12.64
2018-11-25T14:54:38.530Z,13.31
2018-11-25T14:57:04.558Z,13.43
2018-11-25T14:59:30.529Z,13.56
2018-11-25T15:01:56.513Z,13.60
2018-11-25T15:04:22.536Z,13.67
2018-11-25T15:06:48.536Z,13.42
2018-11-25T15:09:14.531Z,12.90
2018-11-25T15:11:40.588Z,13.43
2018-11-25T15:14:06.723Z,13.31
2018-11-25T15:16:32.722Z,13.04
2018-11-25T15:18:58.718Z,13.31
2018-11-25T15:21:24.668Z,12.82
2018-11-25T15:23:50.680Z,13.11
2018-11-25T15:26:16.637Z,12.10
2018-11-25T15:28:42.605Z,13.01
2018-11-25T15:31:08.725Z,13.39
2018-11-25T15:33:34.827Z,13.51
2018-11-25T15:36:00.834Z,13.44
2018-11-25T15:38:26.798Z,13.03
2018-11-25T15:40:52.824Z,13.27
2018-11-25T15:43:19.048Z,13.00
2018-11-25T15:45:45.063Z,12.16
2018-11-25T15:48:11.031Z,12.67
2018-11-25T15:50:37.015Z,13.13
2018-11-25T15:53:03.455Z,13.18
2018-11-25T15:55:29.461Z,12.67
2018-11-25T15:57:55.636Z,12.64
2018-11-25T16:00:21.679Z,12.77
2018-11-25T16:02:47.675Z,12.91
2018-11-25T16:05:13.684Z,13.25
2018-11-25T16:07:39.649Z,13.31
2018-11-25T16:10:05.670Z,13.14
2018-11-25T16:12:31.669Z,13.03
2018-11-25T16:14:57.786Z,12.94
2018-11-25T16:17:23.807Z,12.87
2018-11-25T16:19:49.789Z,12.69
2018-11-25T16:22:15.772Z,12.86
2018-11-25T16:24:41.768Z,12.60
2018-11-25T16:27:07.785Z,12.37
2018-11-25T16:29:33.784Z,12.44
2018-11-25T16:31:59.795Z,12.25
2018-11-25T16:34:25.732Z,12.16
2018-11-25T16:36:52.927Z,12.41
2018-11-25T16:39:18.894Z,12.21
2018-11-25T16:41:44.857Z,12.30
2018-11-25T16:44:10.905Z,12.13
2018-11-25T16:46:37.036Z,12.49
2018-11-25T16:49:04.884Z,12.25
2018-11-25T16:51:30.852Z,12.43
2018-11-25T16:53:56.855Z,12.34
2018-11-25T16:56:23.752Z,12.66
2018-11-25T16:58:49.756Z,12.55
2018-11-25T17:01:15.729Z,12.21
2018-11-25T17:03:41.684Z,11.97
2018-11-25T17:06:07.762Z,11.43
2018-11-25T17:08:33.737Z,11.90
2018-11-25T17:10:59.751Z,12.60
2018-11-25T17:13:25.897Z,12.45
2018-11-25T17:15:51.929Z,12.11
2018-11-25T17:18:17.917Z,11.95
2018-11-25T17:20:43.897Z,11.31
2018-11-25T17:23:09.922Z,11.43
2018-11-25T17:25:35.924Z,11.40
2018-11-25T17:28:01.902Z,11.50
2018-11-25T17:30:28.017Z,11.46
2018-11-25T17:32:53.990Z,11.15
2018-11-25T17:35:19.998Z,11.02
2018-11-25T17:37:46.102Z,10.48
2018-11-25T17:40:12.088Z,10.83
2018-11-25T17:42:38.153Z,10.91
2018-11-25T17:45:04.151Z,11.09
2018-11-25T17:47:35.284Z,11.25
2018-11-25T17:50:01.283Z,11.02
2018-11-25T17:52:27.266Z,10.97
2018-11-25T17:54:53.218Z,10.54
2018-11-25T17:57:19.263Z,10.73
2018-11-25T17:59:49.395Z,10.77
2018-11-25T18:02:18.547Z,10.83
2018-11-25T18:04:45.516Z,10.77
2018-11-25T18:09:43.340Z,10.53
2018-11-25T18:12:09.349Z,10.77
2018-11-25T18:14:35.531Z,10.76
2018-11-25T18:17:01.675Z,10.75
2018-11-25T18:19:28.879Z,10.85
2018-11-25T18:21:56.617Z,10.67
2018-11-25T18:24:22.640Z,10.63
2018-11-25T18:26:48.710Z,10.58
2018-11-25T18:29:14.664Z,10.74
2018-11-25T18:31:40.674Z,10.52
2018-11-25T18:34:06.635Z,10.54
2018-11-25T18:36:33.739Z,10.43
2018-11-25T18:38:59.704Z,10.43
2018-11-25T18:41:25.694Z,10.34
2018-11-25T18:43:51.703Z,10.16
2018-11-25T18:46:17.678Z,10.26
2018-11-25T18:48:43.724Z,10.52
2018-11-25T18:51:09.722Z,10.46
2018-11-25T18:53:35.781Z,10.69
2018-11-25T18:56:01.792Z,10.54
2018-11-25T18:58:27.763Z,10.56
2018-11-25T19:00:53.707Z,10.64
2018-11-25T19:03:19.700Z,10.98
2018-11-25T19:05:45.725Z,11.07
2018-11-25T19:08:11.812Z,11.25
2018-11-25T19:10:37.860Z,11.16
2018-11-25T19:13:03.894Z,11.23
2018-11-25T19:15:29.881Z,11.29
2018-11-25T19:17:55.943Z,10.94
2018-11-25T19:20:22.011Z,10.88
2018-11-25T19:22:49.434Z,11.05
2018-11-25T19:25:15.562Z,10.99
2018-11-25T19:27:41.576Z,11.17
2018-11-25T19:30:07.551Z,10.87
2018-11-25T19:32:34.634Z,10.55
2018-11-25T19:35:00.628Z,10.58
2018-11-25T19:37:27.796Z,10.44
2018-11-25T19:42:39.113Z,11.10
2018-11-25T19:45:06.291Z,11.01
2018-11-25T19:47:32.438Z,10.82
2018-11-25T19:49:58.433Z,10.53
2018-11-25T19:52:24.489Z,10.90
2018-11-25T19:54:50.451Z,11.32
2018-11-25T19:57:16.433Z,11.35
2018-11-25T19:59:42.387Z,11.34
2018-11-25T20:02:08.964Z,11.65
2018-11-25T20:04:34.912Z,11.26
2018-11-25T20:07:00.875Z,11.19
2018-11-25T20:09:26.852Z,11.26
2018-11-25T20:11:52.921Z,11.26
2018-11-25T20:14:18.887Z,11.40
2018-11-25T20:16:44.858Z,11.19
2018-11-25T20:19:10.834Z,11.45
2018-11-25T20:21:36.794Z,11.34
2018-11-25T20:24:02.745Z,10.94
2018-11-25T20:26:28.750Z,10.86
2018-11-25T20:28:54.726Z,11.09
2018-11-25T20:31:20.697Z,11.24
2018-11-25T20:33:51.532Z,11.22
2018-11-25T20:36:12.683Z,11.02
2018-11-25T20:38:38.722Z,10.83
2018-11-25T20:41:04.694Z,10.87
2018-11-25T20:43:30.737Z,10.73
2018-11-25T20:45:56.699Z,11.06
2018-11-25T20:48:23.651Z,11.17
2018-11-25T20:50:49.658Z,11.23
2018-11-25T20:53:15.614Z,11.28
2018-11-25T20:55:41.555Z,11.51
2018-11-25T20:58:08.581Z,11.65
2018-11-25T21:00:34.528Z,11.24
2018-11-25T21:03:00.530Z,11.17
2018-11-25T21:05:26.558Z,11.52
2018-11-25T21:07:52.528Z,11.55
2018-11-25T21:10:20.646Z,11.40
2018-11-25T21:12:46.597Z,11.24
2018-11-25T21:15:12.548Z,11.24
2018-11-25T21:17:39.101Z,11.35
2018-11-25T21:20:06.154Z,11.55
2018-11-25T21:22:32.156Z,11.53
2018-11-25T21:24:58.184Z,11.44
2018-11-25T21:27:24.187Z,11.26
2018-11-25T21:29:50.248Z,11.39
2018-11-25T21:32:16.354Z,11.41
2018-11-25T21:34:42.541Z,11.33
2018-11-25T21:37:08.486Z,11.17
2018-11-25T21:39:34.461Z,11.28
2018-11-25T21:42:01.511Z,11.39
2018-11-25T21:44:27.467Z,11.45
2018-11-25T21:46:53.459Z,11.52
2018-11-25T21:49:19.449Z,11.65
2018-11-25T21:51:45.425Z,11.40
2018-11-25T21:54:11.403Z,11.15
2018-11-25T21:56:37.392Z,11.37
2018-11-25T21:59:03.382Z,11.58
2018-11-25T22:01:29.735Z,11.42
2018-11-25T22:03:55.760Z,11.58
2018-11-25T22:06:21.740Z,11.35
2018-11-25T22:08:47.742Z,11.37
2018-11-25T22:11:13.722Z,11.28
2018-11-25T22:13:39.689Z,11.17
2018-11-25T22:16:05.715Z,11.17
2018-11-25T22:18:31.670Z,11.19
2018-11-25T22:20:57.672Z,11.37
2018-11-25T22:23:23.615Z,11.30
2018-11-25T22:25:49.558Z,11.13
2018-11-25T22:28:15.534Z,11.16
2018-11-25T22:30:41.719Z,11.53
2018-11-25T22:33:07.695Z,11.03
2018-11-25T22:35:33.662Z,11.10
2018-11-25T22:37:59.623Z,11.29
2018-11-25T22:40:25.582Z,11.72
2018-11-25T22:42:51.548Z,11.86
2018-11-25T22:45:17.503Z,11.81
2018-11-25T22:47:43.439Z,11.87
2018-11-25T22:50:09.406Z,11.81
2018-11-25T22:52:35.391Z,11.74
2018-11-25T22:55:01.368Z,11.76
2018-11-25T22:57:27.353Z,11.81
2018-11-25T22:59:53.306Z,11.88
2018-11-25T23:02:19.287Z,11.89
2018-11-25T23:04:45.318Z,12.00
2018-11-25T23:07:11.294Z,12.02
2018-11-25T23:09:37.255Z,11.65
2018-11-25T23:12:03.199Z,11.80
2018-11-25T23:14:29.162Z,11.97
2018-11-25T23:16:55.119Z,12.04
2018-11-25T23:19:21.106Z,11.75
2018-11-25T23:21:47.043Z,11.53
2018-11-25T23:24:12.976Z,11.71
2018-11-25T23:26:38.949Z,11.90
2018-11-25T23:29:04.910Z,11.95
2018-11-25T23:31:30.890Z,12.28
2018-11-25T23:33:56.908Z,11.83
2018-11-25T23:36:22.865Z,12.04
2018-11-25T23:38:48.828Z,11.78
2018-11-25T23:41:14.798Z,12.08
2018-11-25T23:43:40.768Z,12.05
2018-11-25T23:46:06.758Z,11.98
2018-11-25T23:48:32.742Z,12.07
2018-11-25T23:50:58.710Z,12.05
2018-11-25T23:53:24.692Z,12.20
2018-11-25T23:55:50.684Z,12.03
2018-11-25T23:58:16.670Z,11.86
